Beemer, Nebraska
Current Conditions -  °F | °C
As of 11:35 AM on Monday 22 Dec 2014 (Local Time) from KLCG Reporting Station
Overcast Overcast  
Wind Chill: 39°   Ceiling: 1100
Heat Index: 42°   Visibility: 10mi
Dew Point: 38°   Wind: 5mph
Humidity: 87%   Direction: 350°N
Pressure: 29.45"   Gusts: NA
Location:  41.93°N, 96.81°W
Report Text: KLCG 221735Z AUTO 35004KT 10SM OVC011 06/04 A2945 RMK AO2 T00550035
Loading
Personal Weather Stations






























Interactive Weather Map New forecast layout! Learn more

10-Day Weather Forecast

Advertisements
Track Severe Weather on mobile